This is the latest recevied weather packets stored in our database for station/object LRTR. If no packets are shown the sender has not sent any weather packets the latest 10 day(s).
| Time | Temp. | Humidity | Pressure | Rain* | Wind** | Luminosity | Snow |
|---|---|---|---|---|---|---|---|
| 1778120285 | 15° C | 72% | 1011 hPa | - | - | - | - |
| 1778119385 | 15° C | 72% | 1011 hPa | - | - | - | - |
| 1778118485 | 15° C | 72% | 1011 hPa | - | - | - | - |
| 1778117585 | 15° C | 72% | 1011 hPa | - | - | - | - |
| 1778116685 | 13.89° C | 77% | 1011 hPa | - | - | - | - |
| 1778115786 | 13.89° C | 77% | 1011 hPa | - | - | - | - |
| 1778114885 | 15° C | 72% | 1011 hPa | - | - | - | - |
| 1778113985 | 15° C | 72% | 1011 hPa | - | - | - | - |
| 1778113085 | 17.22° C | 59% | 1011 hPa | - | - | - | - |
| 1778112185 | 17.22° C | 59% | 1011 hPa | - | - | - | - |
| 1778111285 | 15° C | 72% | 1011 hPa | - | - | - | - |
| 1778110385 | 15° C | 72% | 1011 hPa | - | - | - | - |
| 1778109486 | 12.78° C | 82% | 1011 hPa | - | - | - | - |
| 1778108585 | 12.78° C | 82% | 1011 hPa | - | - | - | - |
| 1778107685 | 12.22° C | 88% | 1011 hPa | - | - | - | - |
| 1778106785 | 12.22° C | 88% | 1011 hPa | - | - | - | - |
| 1778105885 | 12.22° C | 82% | 1011 hPa | - | - | - | - |
| 1778104984 | 12.22° C | 82% | 1011 hPa | - | - | - | - |
| 1778104101 | 12.22° C | 82% | 1011 hPa | - | - | - | - |
| 1778103185 | 12.22° C | 82% | 1011 hPa | - | - | - | - |
| 1778102285 | 12.22° C | 82% | 1011 hPa | - | - | - | - |
| 1778101385 | 12.22° C | 82% | 1011 hPa | - | - | - | - |
| 1778100486 | 12.22° C | 88% | 1011 hPa | - | - | - | - |
| 1778099585 | 12.22° C | 88% | 1011 hPa | - | - | - | - |
| 1778098685 | 12.78° C | 82% | 1011 hPa | - | - | - | - |
* Rain since midnight (hover to see other rain measurements)
** Current wind speed in m/s (hover to see current wind gust speed)